Meadow Summit, North Carolina
Current Conditions -  °F | °C
As of 9:35 AM on Friday 31 Oct 2014 (Local Time) from KSIF Reporting Station
Overcast Overcast  
Wind Chill: 42°   Ceiling: 3500
Heat Index: 42°   Visibility: 10mi
Dew Point: 41°   Wind: 0mph
Humidity: 95%   Direction: NA
Pressure: 29.99"   Gusts: NA
Location:  36.5114°N, 79.7844°W
Report Text: KSIF 311335Z AUTO 00000KT 10SM OVC035 06/05 A2999 RMK AO2 T00580051
Loading
Personal Weather Stations






























Interactive Weather Map
Tropical Storm Tracking
New forecast layout! Learn more

10-Day Weather Forecast

Advertisements
Track Severe Weather on mobile